Athena, Oregon
Current Conditions -  °F | °C
As of 2:53 AM on Saturday 22 Nov 2014 (Local Time) from KPDT Reporting Station
Few Clouds Few Clouds  
Wind Chill: 38°   Ceiling: Unl
Heat Index: 46°   Visibility: 10mi
Dew Point: 37°   Wind: 24mph
Humidity: 71%   Direction: 240°WSW
Pressure: 29.59"   Gusts: 31mph
Location:  45.81°N, 118.49°W
Report Text: KPDT 221053Z AUTO 24021G27KT 10SM FEW055 08/03 A2959 RMK AO2 PK WND 25035/1019 RAE11 SLP020 P0000 T00780028
Loading
Personal Weather Stations






























Interactive Weather Map New forecast layout! Learn more

10-Day Weather Forecast

Advertisements
Track Severe Weather on mobile